Time;durP1;ratioP1;P1;durP2;ratioP2;P2;SDS_P1;SDS_P2;PMS_P1;PMS_P2;Temp;Humidity;BMP_temperature;BMP_pressure;BME280_temperature;BME280_humidity;BME280_pressure;Samples;Min_cycle;Max_cycle;Signal;HPM_P1;HPM_P2
2022/03/29 00:02:09;;;;;;;30.73;16.60;;;12.90;60.20;;;;;;5057699;28;20466;-47
2022/03/29 00:04:36;;;;;;;43.50;18.20;;;12.90;60.10;;;;;;5056475;28;20458;-46
2022/03/29 00:07:03;;;;;;;24.80;15.63;;;12.90;60.10;;;;;;5041813;28;21046;-47
2022/03/29 00:09:29;;;;;;;30.03;18.43;;;12.80;60.00;;;;;;5051803;28;20471;-46
2022/03/29 00:11:56;;;;;;;28.50;18.40;;;12.80;59.80;;;;;;5053814;28;20582;-47
2022/03/29 00:14:23;;;;;;;29.10;18.13;;;12.80;59.90;;;;;;5055941;28;20460;-47
2022/03/29 00:16:50;;;;;;;33.83;17.90;;;12.80;60.00;;;;;;5060137;28;20463;-47
2022/03/29 00:19:16;;;;;;;33.00;18.97;;;12.80;60.10;;;;;;5060298;28;20488;-47
2022/03/29 00:21:43;;;;;;;27.50;16.97;;;12.80;60.20;;;;;;5055767;28;20870;-47
2022/03/29 00:24:10;;;;;;;28.43;17.00;;;12.70;60.10;;;;;;5056048;28;20464;-47
2022/03/29 00:26:37;;;;;;;28.30;18.03;;;12.70;60.10;;;;;;5059323;28;20590;-46
2022/03/29 00:29:03;;;;;;;30.30;18.83;;;12.70;60.00;;;;;;5060450;28;20463;-46
2022/03/29 00:31:30;;;;;;;25.67;17.23;;;12.70;60.30;;;;;;5044138;28;20462;-46
2022/03/29 00:33:57;;;;;;;29.87;18.47;;;12.70;60.50;;;;;;5039013;28;21021;-46
2022/03/29 00:36:24;;;;;;;30.23;18.23;;;12.70;60.80;;;;;;5057913;28;20478;-48
2022/03/29 00:38:50;;;;;;;27.07;17.47;;;12.60;61.10;;;;;;5059241;28;20469;-46
2022/03/29 00:41:17;;;;;;;28.57;18.23;;;12.60;61.00;;;;;;5055185;28;20468;-46
2022/03/29 00:43:44;;;;;;;29.57;18.57;;;12.60;61.10;;;;;;5039610;28;20467;-46
2022/03/29 00:46:11;;;;;;;27.40;17.20;;;12.60;61.00;;;;;;5060758;28;20501;-47
2022/03/29 00:48:38;;;;;;;25.87;18.80;;;12.60;61.00;;;;;;5062339;28;20625;-46
2022/03/29 00:51:06;;;;;;;31.33;18.33;;;12.60;61.20;;;;;;5062612;28;20490;-47
2022/03/29 00:53:32;;;;;;;28.13;18.33;;;12.60;61.10;;;;;;5066388;28;20470;-47
2022/03/29 00:56:02;;;;;;;26.63;17.30;;;12.60;61.20;;;;;;5062300;28;20452;-47
2022/03/29 00:58:30;;;;;;;30.07;17.40;;;12.50;61.30;;;;;;5058370;28;20477;-46
2022/03/29 01:01:01;;;;;;;31.63;18.07;;;12.50;61.60;;;;;;5059848;28;20513;-46
2022/03/29 01:03:30;;;;;;;29.20;18.17;;;12.50;61.70;;;;;;5060782;28;20462;-46
2022/03/29 01:05:57;;;;;;;28.47;17.53;;;12.50;61.80;;;;;;5059659;28;20562;-46
2022/03/29 01:08:25;;;;;;;28.97;17.93;;;12.50;61.90;;;;;;5060749;28;20470;-46
2022/03/29 01:10:52;;;;;;;28.50;17.07;;;12.50;61.80;;;;;;5039502;28;20470;-46
2022/03/29 01:13:19;;;;;;;25.17;17.17;;;12.50;61.90;;;;;;5059314;28;20470;-46
2022/03/29 01:15:46;;;;;;;23.77;15.40;;;12.50;61.90;;;;;;5054579;28;20477;-46
2022/03/29 01:18:17;;;;;;;27.23;18.03;;;12.40;61.80;;;;;;5059432;28;20805;-46
2022/03/29 01:20:49;;;;;;;26.43;17.00;;;12.40;61.80;;;;;;5043058;28;20840;-46
2022/03/29 01:23:16;;;;;;;25.53;17.63;;;12.40;61.80;;;;;;5061263;28;20463;-46
2022/03/29 01:25:44;;;;;;;23.80;16.37;;;12.40;62.10;;;;;;5058720;28;20484;-46
2022/03/29 01:28:14;;;;;;;26.70;16.87;;;12.30;62.40;;;;;;5062407;28;20897;-46
2022/03/29 01:30:41;;;;;;;31.63;17.53;;;12.30;62.60;;;;;;5059862;28;20465;-46
2022/03/29 01:33:09;;;;;;;28.93;17.70;;;12.30;62.70;;;;;;5063838;28;20490;-47
2022/03/29 01:35:37;;;;;;;27.80;18.03;;;12.30;62.80;;;;;;5059028;28;21053;-46
2022/03/29 01:38:04;;;;;;;28.10;17.97;;;12.30;62.80;;;;;;5062289;28;20463;-47
2022/03/29 01:40:31;;;;;;;31.57;18.20;;;12.30;63.00;;;;;;5056820;28;20981;-46
2022/03/29 01:43:01;;;;;;;29.57;19.37;;;12.30;63.10;;;;;;5046993;28;20872;-46
2022/03/29 01:45:30;;;;;;;28.07;18.60;;;12.20;63.30;;;;;;5057795;28;20725;-46
2022/03/29 01:47:57;;;;;;;26.63;17.33;;;12.20;63.10;;;;;;5038246;28;20472;-46
2022/03/29 01:50:24;;;;;;;28.73;19.73;;;12.20;63.30;;;;;;5060624;28;20823;-47
2022/03/29 01:52:51;;;;;;;30.03;19.00;;;12.20;63.50;;;;;;5037319;28;20459;-46
2022/03/29 01:55:20;;;;;;;27.00;19.33;;;12.20;63.50;;;;;;5063289;28;20463;-47
2022/03/29 01:57:48;;;;;;;33.70;20.27;;;12.10;63.50;;;;;;5060497;28;20497;-46
2022/03/29 02:00:33;;;;;;;31.33;20.93;;;12.10;63.60;;;;;;5056928;28;20842;-47
2022/03/29 02:03:03;;;;;;;36.80;20.20;;;12.10;63.80;;;;;;5061015;28;20482;-46
2022/03/29 02:05:32;;;;;;;31.80;20.73;;;12.00;63.80;;;;;;5041882;28;20862;-46
2022/03/29 02:08:00;;;;;;;35.30;19.63;;;12.00;63.70;;;;;;5060530;28;20463;-46
2022/03/29 02:10:27;;;;;;;34.67;18.93;;;12.00;63.80;;;;;;5046156;28;20458;-46
2022/03/29 02:12:54;;;;;;;32.53;21.80;;;12.00;63.90;;;;;;5038584;28;20543;-48
2022/03/29 02:15:21;;;;;;;32.90;19.80;;;11.90;64.00;;;;;;5060433;28;20466;-48
2022/03/29 02:17:51;;;;;;;33.77;19.40;;;11.90;64.10;;;;;;5067421;28;20456;-48
2022/03/29 02:20:19;;;;;;;27.90;18.17;;;11.90;64.00;;;;;;5061064;28;20605;-48
2022/03/29 02:22:46;;;;;;;34.20;19.37;;;11.90;64.20;;;;;;5044353;28;20486;-48
2022/03/29 02:25:13;;;;;;;31.40;18.93;;;11.90;64.30;;;;;;5063327;28;20955;-48
2022/03/29 02:27:43;;;;;;;29.33;17.90;;;11.90;64.30;;;;;;5061857;28;20486;-48
2022/03/29 02:30:12;;;;;;;29.43;19.13;;;11.80;64.30;;;;;;5058543;28;20473;-48
2022/03/29 02:32:39;;;;;;;30.53;19.70;;;11.80;64.60;;;;;;5061009;28;20459;-48
2022/03/29 02:35:07;;;;;;;30.33;19.80;;;11.80;64.70;;;;;;5047062;28;20465;-47
2022/03/29 02:37:34;;;;;;;29.60;19.20;;;11.80;64.90;;;;;;5060140;28;20452;-47
2022/03/29 02:40:03;;;;;;;28.80;17.90;;;11.80;64.60;;;;;;5063252;28;20939;-45
2022/03/29 02:42:30;;;;;;;29.10;19.30;;;11.80;65.00;;;;;;5057052;28;20459;-45
2022/03/29 02:44:57;;;;;;;27.77;18.47;;;11.70;65.00;;;;;;5063026;28;20862;-45
2022/03/29 02:47:24;;;;;;;30.07;20.57;;;11.70;65.00;;;;;;5039591;28;20498;-45
2022/03/29 02:49:50;;;;;;;31.10;18.27;;;11.70;65.20;;;;;;5059486;28;20451;-44
2022/03/29 02:52:17;;;;;;;31.07;19.60;;;11.70;65.30;;;;;;5060047;28;20455;-45
2022/03/29 02:54:44;;;;;;;33.50;19.80;;;11.70;65.50;;;;;;5059432;28;20470;-45
2022/03/29 02:57:11;;;;;;;32.80;19.70;;;11.70;65.50;;;;;;5055005;28;20857;-45
2022/03/29 02:59:38;;;;;;;30.40;19.20;;;11.70;65.50;;;;;;5056482;28;20478;-45
2022/03/29 03:02:05;;;;;;;32.03;21.27;;;11.60;65.50;;;;;;5060499;28;20494;-45
2022/03/29 03:04:33;;;;;;;29.60;17.80;;;11.60;65.60;;;;;;5046172;28;20803;-45
2022/03/29 03:07:00;;;;;;;27.27;17.63;;;11.60;65.90;;;;;;5059394;28;20487;-45
2022/03/29 03:09:27;;;;;;;29.43;17.80;;;11.60;66.10;;;;;;5051375;28;20488;-45
2022/03/29 03:11:54;;;;;;;32.77;19.67;;;11.50;66.10;;;;;;5055894;28;20458;-45
2022/03/29 03:14:21;;;;;;;33.93;18.57;;;11.50;66.10;;;;;;5059498;28;20464;-45
2022/03/29 03:16:47;;;;;;;33.70;20.80;;;11.60;66.00;;;;;;5057392;28;20491;-44
2022/03/29 03:19:34;;;;;;;37.93;19.40;;;11.50;65.90;;;;;;5057426;28;20468;-44
2022/03/29 03:22:01;;;;;;;30.37;18.10;;;11.50;66.20;;;;;;5057484;28;20478;-44
2022/03/29 03:24:28;;;;;;;29.50;17.83;;;11.50;66.30;;;;;;5060737;28;20682;-44
2022/03/29 03:26:55;;;;;;;33.93;20.60;;;11.50;66.60;;;;;;5056453;28;20491;-44
2022/03/29 03:29:21;;;;;;;32.20;20.57;;;11.50;66.40;;;;;;5054305;28;21052;-45
2022/03/29 03:31:49;;;;;;;28.90;20.23;;;11.50;66.10;;;;;;5061585;28;20467;-45
2022/03/29 03:34:15;;;;;;;29.43;19.47;;;11.50;66.20;;;;;;5057496;28;20498;-45
2022/03/29 03:36:42;;;;;;;35.67;18.63;;;11.50;66.40;;;;;;5058019;28;20945;-45
2022/03/29 03:39:09;;;;;;;31.97;19.87;;;11.50;66.50;;;;;;5062331;28;20856;-44
2022/03/29 03:41:37;;;;;;;31.43;20.40;;;11.50;66.50;;;;;;5057349;28;21101;-44
2022/03/29 03:44:05;;;;;;;35.33;20.60;;;11.50;66.50;;;;;;5060771;28;20481;-44
2022/03/29 03:46:31;;;;;;;33.80;20.00;;;11.50;66.80;;;;;;5055899;28;20542;-45
2022/03/29 03:48:58;;;;;;;36.03;20.67;;;11.50;67.00;;;;;;5057715;28;20451;-45
2022/03/29 03:51:25;;;;;;;34.10;22.70;;;11.40;67.20;;;;;;5057329;28;20973;-45
2022/03/29 03:53:51;;;;;;;35.20;20.90;;;11.40;67.20;;;;;;5046728;28;20475;-45
2022/03/29 03:56:18;;;;;;;38.20;22.03;;;11.40;67.20;;;;;;5058875;28;20471;-44
2022/03/29 03:58:45;;;;;;;37.93;22.37;;;11.40;67.10;;;;;;5058752;28;20474;-45
2022/03/29 04:01:12;;;;;;;33.33;20.70;;;11.40;67.10;;;;;;5060438;28;20683;-45
2022/03/29 04:03:39;;;;;;;37.23;23.30;;;11.40;67.10;;;;;;5055629;28;20500;-45
2022/03/29 04:06:06;;;;;;;35.90;22.30;;;11.40;67.20;;;;;;5059744;28;20543;-45
2022/03/29 04:08:32;;;;;;;37.67;23.43;;;11.40;67.10;;;;;;5057882;28;20895;-45
2022/03/29 04:10:59;;;;;;;34.73;20.73;;;11.40;67.10;;;;;;5056682;28;20460;-45
2022/03/29 04:13:26;;;;;;;34.13;20.40;;;11.40;67.10;;;;;;5053107;28;20473;-45
2022/03/29 04:15:53;;;;;;;39.60;21.60;;;11.40;67.40;;;;;;5057573;28;20456;-45
2022/03/29 04:18:20;;;;;;;37.30;23.03;;;11.40;67.70;;;;;;5040527;28;20455;-45
2022/03/29 04:20:47;;;;;;;35.17;21.90;;;11.30;67.60;;;;;;5060169;28;20469;-45
2022/03/29 04:23:14;;;;;;;34.83;21.30;;;11.30;67.80;;;;;;5055100;28;21047;-45
2022/03/29 04:25:40;;;;;;;37.77;22.37;;;11.30;67.90;;;;;;5059704;28;20483;-45
2022/03/29 04:28:07;;;;;;;39.17;21.57;;;11.30;67.90;;;;;;5048013;28;20989;-45
2022/03/29 04:30:34;;;;;;;37.13;22.27;;;11.30;67.90;;;;;;5065365;28;20461;-45
2022/03/29 04:33:01;;;;;;;36.03;20.77;;;11.30;68.00;;;;;;5056839;28;20466;-45
2022/03/29 04:35:28;;;;;;;37.17;21.13;;;11.20;68.00;;;;;;5063869;28;21042;-45
2022/03/29 04:37:54;;;;;;;34.50;21.60;;;11.20;68.00;;;;;;5063513;28;20837;-45
2022/03/29 04:40:22;;;;;;;37.83;23.00;;;11.20;68.20;;;;;;5067114;28;20464;-45
2022/03/29 04:42:50;;;;;;;35.77;21.90;;;11.20;68.40;;;;;;5044317;28;20995;-45
2022/03/29 04:45:18;;;;;;;33.90;21.20;;;11.20;68.30;;;;;;5061302;28;20814;-45
2022/03/29 04:47:46;;;;;;;39.63;23.37;;;11.10;68.40;;;;;;5064186;28;20485;-45
2022/03/29 04:50:15;;;;;;;35.73;20.73;;;11.10;68.50;;;;;;5062761;28;20979;-45
2022/03/29 04:52:44;;;;;;;33.60;22.40;;;11.10;68.50;;;;;;5062518;28;20522;-45
2022/03/29 04:55:12;;;;;;;38.10;24.70;;;11.10;68.60;;;;;;5059743;28;20450;-45
2022/03/29 04:57:41;;;;;;;35.57;23.30;;;11.00;68.70;;;;;;5060175;28;20463;-45
2022/03/29 05:00:12;;;;;;;35.20;23.13;;;11.00;68.80;;;;;;5061473;28;21038;-45
2022/03/29 05:02:40;;;;;;;38.00;22.73;;;11.00;68.80;;;;;;5059453;28;21035;-44
2022/03/29 05:05:07;;;;;;;30.20;19.47;;;11.00;68.90;;;;;;5062180;28;20538;-44
2022/03/29 05:07:35;;;;;;;37.27;21.30;;;11.00;68.80;;;;;;5063584;28;20552;-44
2022/03/29 05:10:03;;;;;;;39.17;22.63;;;11.00;69.00;;;;;;5060895;28;20464;-44
2022/03/29 05:12:37;;;;;;;38.50;22.50;;;11.00;69.00;;;;;;5063179;28;20846;-44
2022/03/29 05:15:05;;;;;;;39.07;22.60;;;10.90;69.20;;;;;;5062527;28;20938;-45
2022/03/29 05:17:33;;;;;;;29.30;19.40;;;10.90;69.20;;;;;;5060929;28;20470;-44
2022/03/29 05:20:01;;;;;;;31.47;20.47;;;10.90;69.20;;;;;;5061377;28;20490;-45
2022/03/29 05:22:28;;;;;;;33.00;20.40;;;10.90;69.50;;;;;;5049402;28;20446;-45
2022/03/29 05:24:55;;;;;;;35.33;20.30;;;10.90;69.50;;;;;;5064109;28;20447;-45
2022/03/29 05:27:22;;;;;;;39.00;25.53;;;10.90;69.80;;;;;;5060628;28;20495;-45
2022/03/29 05:29:49;;;;;;;37.97;22.30;;;10.90;69.80;;;;;;5060328;28;20448;-45
2022/03/29 05:32:18;;;;;;;36.43;21.23;;;10.90;69.90;;;;;;5061172;28;20534;-45
2022/03/29 05:34:45;;;;;;;36.17;21.70;;;10.90;69.90;;;;;;5063034;28;20500;-44
2022/03/29 05:37:14;;;;;;;32.33;19.60;;;10.90;69.90;;;;;;5030504;28;20469;-44
2022/03/29 05:39:43;;;;;;;38.20;21.00;;;10.90;69.90;;;;;;5059854;28;20535;-44
2022/03/29 05:42:11;;;;;;;35.87;19.63;;;10.90;70.00;;;;;;5056276;28;20871;-45
2022/03/29 05:44:38;;;;;;;35.83;21.97;;;10.90;69.90;;;;;;5054056;28;20549;-45
2022/03/29 05:49:52;;;;;;;35.97;23.17;;;10.90;70.00;;;;;;5060447;28;20820;-45
2022/03/29 05:52:20;;;;;;;40.17;22.70;;;10.90;70.00;;;;;;5049205;28;20940;-46
2022/03/29 05:54:47;;;;;;;32.27;21.07;;;10.90;70.10;;;;;;5057020;28;20874;-45
2022/03/29 05:57:17;;;;;;;40.40;25.10;;;10.90;70.00;;;;;;5054609;28;20828;-45
2022/03/29 05:59:45;;;;;;;38.33;22.57;;;10.90;69.90;;;;;;5059125;28;20468;-45
2022/03/29 06:02:12;;;;;;;35.23;23.07;;;10.90;70.10;;;;;;5059939;28;20979;-45
2022/03/29 06:04:42;;;;;;;41.00;22.60;;;11.00;70.20;;;;;;5060338;28;20602;-45
2022/03/29 06:07:09;;;;;;;34.23;22.80;;;11.00;70.10;;;;;;5055215;28;20559;-45
2022/03/29 06:09:36;;;;;;;37.73;22.40;;;11.00;70.10;;;;;;5056904;28;20451;-45
2022/03/29 06:12:03;;;;;;;42.20;21.93;;;11.00;70.20;;;;;;5061445;28;20447;-45
2022/03/29 06:14:30;;;;;;;39.40;24.17;;;11.00;70.20;;;;;;5055745;28;21197;-45
2022/03/29 06:16:56;;;;;;;39.23;23.00;;;11.10;70.20;;;;;;5061989;28;20457;-45
2022/03/29 06:19:23;;;;;;;39.73;24.00;;;11.10;70.30;;;;;;5058940;28;20926;-45
2022/03/29 06:21:50;;;;;;;34.50;22.20;;;11.10;70.40;;;;;;5058903;28;20470;-45
2022/03/29 06:24:16;;;;;;;39.37;22.73;;;11.10;70.30;;;;;;5054115;28;20571;-45
2022/03/29 06:26:43;;;;;;;36.73;22.67;;;11.10;70.40;;;;;;5059335;28;20487;-45
2022/03/29 06:29:11;;;;;;;37.23;22.00;;;11.20;70.50;;;;;;5058525;28;20468;-45
2022/03/29 06:31:39;;;;;;;36.20;23.77;;;11.20;70.60;;;;;;5062230;28;20816;-45
2022/03/29 06:34:06;;;;;;;40.23;24.63;;;11.20;70.60;;;;;;5065345;28;20455;-45
2022/03/29 06:36:33;;;;;;;37.40;23.47;;;11.30;70.40;;;;;;5058253;28;20956;-45
2022/03/29 06:39:03;;;;;;;35.90;23.13;;;11.30;70.10;;;;;;5057036;28;20476;-45
2022/03/29 06:41:30;;;;;;;39.07;22.90;;;11.40;69.30;;;;;;5057722;28;20462;-45
2022/03/29 06:43:57;;;;;;;40.93;24.83;;;11.50;68.80;;;;;;5061982;28;21062;-45
2022/03/29 06:46:25;;;;;;;39.13;24.47;;;11.60;68.70;;;;;;5062070;28;20479;-45
2022/03/29 06:48:54;;;;;;;40.77;23.93;;;11.70;68.30;;;;;;5059120;28;20462;-45
2022/03/29 06:51:20;;;;;;;43.00;24.00;;;11.80;68.00;;;;;;5057459;28;20563;-45
2022/03/29 06:53:47;;;;;;;38.53;23.40;;;11.80;68.00;;;;;;5049970;28;20453;-45
2022/03/29 06:56:16;;;;;;;35.00;21.57;;;11.80;68.20;;;;;;5057089;28;20480;-45
2022/03/29 06:58:43;;;;;;;38.23;24.53;;;11.80;68.20;;;;;;5059229;28;20961;-45
2022/03/29 07:01:10;;;;;;;38.17;24.17;;;11.90;68.20;;;;;;5061966;28;20442;-45
2022/03/29 07:03:37;;;;;;;38.07;22.80;;;12.00;67.60;;;;;;5061383;28;20451;-45
2022/03/29 07:06:04;;;;;;;41.77;24.87;;;12.10;67.50;;;;;;5054647;28;20458;-45
2022/03/29 07:08:32;;;;;;;42.73;24.37;;;12.10;67.60;;;;;;5055973;28;20491;-45
2022/03/29 07:11:21;;;;;;;42.03;24.30;;;12.20;67.40;;;;;;5060111;28;20479;-45
2022/03/29 07:13:48;;;;;;;41.17;24.67;;;12.30;67.30;;;;;;5054699;28;20496;-45
2022/03/29 07:16:15;;;;;;;42.67;24.93;;;12.30;67.30;;;;;;5055915;28;20471;-45
2022/03/29 07:18:46;;;;;;;38.63;23.67;;;12.40;66.80;;;;;;5044698;28;20468;-45
2022/03/29 07:21:13;;;;;;;34.70;22.67;;;12.50;66.30;;;;;;5042426;28;20463;-45
2022/03/29 07:23:40;;;;;;;39.47;25.00;;;12.50;65.50;;;;;;5059270;28;20476;-45
2022/03/29 07:26:07;;;;;;;37.37;23.70;;;12.70;65.90;;;;;;5061730;28;20896;-45
2022/03/29 07:28:34;;;;;;;40.43;24.00;;;12.70;65.40;;;;;;5058225;28;20491;-45
2022/03/29 07:31:01;;;;;;;42.03;25.13;;;12.70;65.50;;;;;;5058380;28;20454;-45
2022/03/29 07:33:28;;;;;;;40.37;23.30;;;12.80;65.80;;;;;;5058045;28;20451;-45
2022/03/29 07:35:55;;;;;;;39.07;23.87;;;12.80;65.70;;;;;;5057863;28;20465;-45
2022/03/29 07:38:22;;;;;;;39.53;23.97;;;12.90;65.50;;;;;;5061266;28;20590;-45
2022/03/29 07:40:49;;;;;;;39.07;24.17;;;13.00;65.40;;;;;;5061934;28;20477;-45
2022/03/29 07:43:15;;;;;;;38.80;23.30;;;13.00;65.10;;;;;;5058183;28;20463;-45
2022/03/29 07:45:49;;;;;;;41.93;25.40;;;13.10;64.90;;;;;;5058360;28;21123;-45
2022/03/29 07:48:16;;;;;;;37.97;24.07;;;13.20;64.40;;;;;;5061454;28;20484;-44
2022/03/29 07:51:02;;;;;;;44.07;24.90;;;13.30;64.20;;;;;;5064131;28;20545;-46
2022/03/29 07:53:29;;;;;;;40.97;25.43;;;13.40;63.60;;;;;;5059159;28;20797;-44
2022/03/29 07:55:57;;;;;;;37.20;24.97;;;13.40;63.10;;;;;;5060258;28;20830;-43
2022/03/29 07:58:23;;;;;;;36.47;24.17;;;13.50;62.70;;;;;;5057303;28;20979;-44
2022/03/29 08:00:51;;;;;;;36.47;23.87;;;13.60;62.20;;;;;;5060466;28;20848;-44
2022/03/29 08:03:21;;;;;;;37.03;24.87;;;13.70;62.20;;;;;;5061037;28;20968;-44
2022/03/29 08:05:49;;;;;;;48.57;24.63;;;13.70;61.80;;;;;;5053388;28;20482;-44
2022/03/29 08:08:17;;;;;;;44.40;26.10;;;13.80;61.60;;;;;;5059625;28;20486;-44
2022/03/29 08:10:46;;;;;;;38.87;24.07;;;13.90;61.60;;;;;;5056337;28;20470;-44
2022/03/29 08:13:14;;;;;;;43.43;24.97;;;13.90;61.60;;;;;;5060164;28;20446;-44
2022/03/29 08:15:43;;;;;;;44.73;26.40;;;14.00;61.20;;;;;;5061618;28;20456;-44
2022/03/29 08:18:10;;;;;;;41.83;25.27;;;14.00;60.70;;;;;;5058468;28;20464;-44
2022/03/29 08:20:38;;;;;;;36.90;22.33;;;14.10;60.80;;;;;;5057401;28;20979;-44
2022/03/29 08:23:06;;;;;;;31.73;21.97;;;14.10;60.10;;;;;;5059954;28;20803;-44
2022/03/29 08:25:35;;;;;;;32.90;20.60;;;14.20;60.40;;;;;;5055759;28;20479;-44
2022/03/29 08:28:03;;;;;;;26.97;19.30;;;14.30;61.10;;;;;;5059693;28;20528;-44
2022/03/29 08:30:30;;;;;;;31.00;18.60;;;14.40;60.60;;;;;;5059670;28;20451;-44
2022/03/29 08:32:58;;;;;;;27.30;18.07;;;14.50;58.40;;;;;;5059014;28;20470;-44
2022/03/29 08:35:33;;;;;;;26.40;17.87;;;14.60;58.50;;;;;;5038176;28;20456;-44
2022/03/29 08:38:00;;;;;;;28.57;19.13;;;14.80;57.80;;;;;;5046701;28;20894;-44
2022/03/29 08:40:48;;;;;;;22.40;16.77;;;14.90;57.50;;;;;;5058228;28;20465;-44
2022/03/29 08:43:19;;;;;;;25.43;16.10;;;15.10;57.70;;;;;;5057709;28;20810;-44
2022/03/29 08:45:48;;;;;;;26.53;16.30;;;15.30;57.90;;;;;;5055934;28;20458;-45
2022/03/29 08:48:15;;;;;;;21.23;15.00;;;15.50;56.40;;;;;;5054717;28;20494;-45
2022/03/29 08:50:43;;;;;;;23.20;14.53;;;15.70;54.60;;;;;;5059669;28;20489;-45
2022/03/29 08:53:11;;;;;;;20.37;14.33;;;15.80;53.60;;;;;;5044380;28;20953;-45
2022/03/29 08:55:42;;;;;;;20.10;14.37;;;16.00;53.00;;;;;;5056324;28;20840;-45
2022/03/29 08:58:11;;;;;;;22.17;15.33;;;16.00;52.00;;;;;;5056366;28;20459;-46
2022/03/29 09:00:38;;;;;;;21.77;14.30;;;16.10;51.90;;;;;;5063203;28;20468;-45
2022/03/29 09:03:05;;;;;;;24.27;15.87;;;16.10;51.70;;;;;;5057540;28;20956;-45
2022/03/29 09:05:32;;;;;;;22.47;15.10;;;16.20;52.20;;;;;;5057790;28;20461;-45
2022/03/29 09:08:03;;;;;;;26.30;16.70;;;16.30;53.40;;;;;;5053187;28;20502;-45
2022/03/29 09:10:49;;;;;;;23.60;18.00;;;16.40;53.40;;;;;;5048411;28;20470;-45
2022/03/29 09:13:21;;;;;;;23.40;15.93;;;16.60;53.40;;;;;;5049673;28;20464;-45
2022/03/29 09:15:49;;;;;;;32.20;21.43;;;16.50;52.40;;;;;;5065849;28;20463;-45
2022/03/29 09:18:16;;;;;;;27.70;18.80;;;16.50;52.30;;;;;;5060232;28;20475;-45
2022/03/29 09:20:45;;;;;;;32.53;20.07;;;16.40;52.60;;;;;;5049253;28;20448;-45
2022/03/29 09:23:17;;;;;;;29.80;19.00;;;16.40;52.90;;;;;;5056369;28;20502;-45
2022/03/29 09:25:49;;;;;;;34.20;20.23;;;16.40;53.10;;;;;;5058288;28;20947;-46
2022/03/29 09:28:20;;;;;;;32.33;19.47;;;16.50;53.10;;;;;;5058704;28;20519;-45
2022/03/29 09:30:50;;;;;;;22.67;16.37;;;16.30;52.60;;;;;;5060078;28;20531;-45
2022/03/29 09:33:20;;;;;;;26.83;18.00;;;16.20;52.80;;;;;;5062103;28;20954;-45
2022/03/29 09:36:03;;;;;;;24.07;16.90;;;16.20;52.80;;;;;;5059992;28;21021;-45
2022/03/29 09:38:40;;;;;;;25.83;17.70;;;16.20;52.80;;;;;;5059695;28;20473;-46
2022/03/29 09:41:29;;;;;;;32.27;19.90;;;16.20;53.10;;;;;;5063439;28;20483;-45
2022/03/29 09:44:06;;;;;;;25.20;18.90;;;16.20;53.10;;;;;;5043207;28;20443;-45
2022/03/29 09:46:51;;;;;;;26.47;16.57;;;16.20;53.30;;;;;;5060676;28;20557;-46
2022/03/29 09:49:20;;;;;;;22.30;16.20;;;16.30;53.10;;;;;;5063403;28;20496;-45
2022/03/29 09:51:47;;;;;;;23.07;16.13;;;16.30;52.30;;;;;;5058044;28;20456;-45
2022/03/29 09:54:14;;;;;;;23.17;15.57;;;16.30;52.50;;;;;;5059242;28;20452;-45
2022/03/29 09:56:50;;;;;;;32.13;17.57;;;16.40;52.80;;;;;;5061707;28;20486;-45
2022/03/29 09:59:23;;;;;;;26.47;17.07;;;16.50;52.30;;;;;;5043331;28;20452;-46
2022/03/29 10:01:57;;;;;;;22.57;15.50;;;16.60;51.90;;;;;;5059544;28;20487;-45
2022/03/29 10:04:33;;;;;;;23.63;15.40;;;16.60;51.70;;;;;;5047811;28;20467;-46
2022/03/29 10:07:04;;;;;;;24.80;15.63;;;16.70;51.40;;;;;;5062327;28;20813;-45
2022/03/29 10:09:35;;;;;;;21.60;15.50;;;16.70;51.30;;;;;;5061100;28;20866;-45
2022/03/29 10:12:06;;;;;;;22.53;14.83;;;16.70;51.30;;;;;;5061210;28;20856;-45
2022/03/29 10:14:34;;;;;;;21.90;15.37;;;16.70;51.10;;;;;;5058987;28;20452;-45
2022/03/29 10:17:02;;;;;;;19.70;14.87;;;16.90;51.10;;;;;;5061661;28;20548;-45
2022/03/29 10:19:30;;;;;;;21.90;15.97;;;17.10;51.70;;;;;;5060404;28;20663;-45
2022/03/29 10:21:58;;;;;;;30.90;17.90;;;17.40;52.10;;;;;;5061354;28;20462;-45
2022/03/29 10:24:28;;;;;;;24.50;17.00;;;17.60;50.20;;;;;;5058785;28;20552;-45
2022/03/29 10:26:56;;;;;;;21.97;15.87;;;17.90;49.50;;;;;;5059920;28;20489;-45
2022/03/29 10:29:23;;;;;;;22.20;15.70;;;18.10;48.80;;;;;;5060063;28;20496;-45
2022/03/29 10:31:50;;;;;;;18.27;13.77;;;18.40;48.50;;;;;;5062490;28;20461;-45
2022/03/29 10:34:17;;;;;;;20.20;13.33;;;18.60;48.00;;;;;;5059676;28;20462;-45
2022/03/29 10:37:09;;;;;;;15.93;12.50;;;18.90;47.60;;;;;;5056096;28;20469;-45
2022/03/29 10:39:42;;;;;;;18.43;11.70;;;19.20;47.10;;;;;;5056299;28;21694;-45
2022/03/29 10:42:28;;;;;;;19.30;11.90;;;19.30;46.10;;;;;;5062676;28;20473;-45
2022/03/29 10:45:04;;;;;;;19.77;14.30;;;19.40;45.60;;;;;;5064651;28;20584;-45
2022/03/29 10:47:53;;;;;;;18.90;14.63;;;19.20;45.40;;;;;;5054231;28;20512;-45
2022/03/29 10:50:20;;;;;;;21.07;15.10;;;19.30;45.70;;;;;;5057540;28;20476;-45
2022/03/29 10:52:49;;;;;;;23.50;16.47;;;19.20;45.70;;;;;;5056473;28;20840;-45
2022/03/29 10:55:25;;;;;;;21.83;16.20;;;19.20;45.80;;;;;;5058282;28;20474;-45
2022/03/29 10:58:13;;;;;;;24.60;16.10;;;19.30;45.90;;;;;;5058504;28;20458;-45
2022/03/29 11:00:45;;;;;;;22.33;16.00;;;19.40;46.10;;;;;;5057757;28;20458;-45
2022/03/29 11:03:13;;;;;;;20.40;15.33;;;19.60;46.90;;;;;;5062639;28;20471;-45
2022/03/29 11:06:08;;;;;;;24.70;16.50;;;19.70;45.30;;;;;;5059977;28;20464;-45
2022/03/29 11:08:56;;;;;;;23.70;15.30;;;19.80;45.10;;;;;;5060499;28;20572;-45
2022/03/29 11:11:46;;;;;;;19.97;14.10;;;19.80;45.30;;;;;;5046512;28;20929;-45
2022/03/29 11:14:37;;;;;;;22.17;15.23;;;19.90;45.00;;;;;;5055824;28;20485;-45
2022/03/29 11:17:08;;;;;;;23.23;15.00;;;19.90;45.10;;;;;;5058985;28;20445;-45
2022/03/29 11:19:48;;;;;;;25.73;15.83;;;19.90;45.40;;;;;;5061530;28;21042;-45
2022/03/29 11:22:29;;;;;;;21.20;15.10;;;20.00;45.30;;;;;;5055878;28;20939;-45
2022/03/29 11:25:00;;;;;;;20.77;14.03;;;20.10;45.20;;;;;;5059838;28;20467;-45
2022/03/29 11:27:31;;;;;;;18.93;13.97;;;20.10;44.90;;;;;;5058813;28;20462;-45
2022/03/29 11:30:00;;;;;;;21.97;15.67;;;20.10;45.00;;;;;;5054823;28;20488;-45
2022/03/29 11:32:27;;;;;;;22.90;14.80;;;20.10;44.30;;;;;;5044593;28;20469;-44
2022/03/29 11:34:56;;;;;;;22.17;14.97;;;20.00;44.50;;;;;;5058433;28;20472;-44
2022/03/29 11:37:41;;;;;;;19.90;15.60;;;19.90;44.70;;;;;;5058479;28;20457;-45
2022/03/29 11:40:17;;;;;;;21.67;16.80;;;19.80;45.00;;;;;;5062498;28;20475;-45
2022/03/29 11:42:50;;;;;;;24.57;15.70;;;19.70;45.20;;;;;;5058862;28;20560;-45
2022/03/29 11:45:23;;;;;;;20.20;15.90;;;19.60;45.50;;;;;;5061718;28;20477;-45
2022/03/29 11:47:57;;;;;;;21.60;14.67;;;19.50;45.80;;;;;;5058521;28;20480;-45
2022/03/29 11:50:36;;;;;;;18.30;14.00;;;19.50;45.90;;;;;;5042490;28;20471;-45
2022/03/29 11:53:14;;;;;;;18.23;13.20;;;19.40;45.70;;;;;;5060413;28;20560;-45
2022/03/29 11:55:41;;;;;;;17.83;14.27;;;19.40;45.80;;;;;;5055084;28;20534;-45
2022/03/29 11:58:26;;;;;;;17.13;13.50;;;19.40;45.20;;;;;;5060118;28;20465;-45
2022/03/29 12:01:07;;;;;;;22.67;14.70;;;19.40;45.60;;;;;;5041878;28;20469;-45
2022/03/29 12:03:47;;;;;;;22.73;15.03;;;19.50;46.10;;;;;;5058805;28;20473;-45
2022/03/29 12:06:20;;;;;;;21.10;13.70;;;19.40;46.00;;;;;;5063391;28;20439;-45
2022/03/29 12:08:48;;;;;;;18.87;13.63;;;19.30;45.60;;;;;;5060691;28;20484;-44
2022/03/29 12:11:16;;;;;;;16.60;13.00;;;19.30;45.30;;;;;;5060863;28;20464;-45
2022/03/29 12:13:45;;;;;;;16.10;12.63;;;19.20;45.40;;;;;;5056636;28;20833;-45
2022/03/29 12:16:23;;;;;;;21.17;14.00;;;19.20;45.50;;;;;;5057612;28;20462;-45
2022/03/29 12:18:51;;;;;;;17.90;12.47;;;19.20;45.70;;;;;;5054467;28;20489;-45
2022/03/29 12:21:23;;;;;;;19.30;13.57;;;19.20;46.60;;;;;;5060897;28;20476;-45
2022/03/29 12:23:59;;;;;;;20.13;12.63;;;19.20;45.80;;;;;;5063297;28;20465;-45
2022/03/29 12:26:26;;;;;;;20.23;11.93;;;19.20;46.30;;;;;;5058784;28;20522;-45
2022/03/29 12:28:53;;;;;;;17.70;13.33;;;19.20;46.20;;;;;;5059413;28;20491;-44
2022/03/29 12:31:20;;;;;;;17.67;12.73;;;19.20;45.90;;;;;;5057131;28;20464;-44
2022/03/29 12:33:47;;;;;;;16.90;13.07;;;19.30;46.70;;;;;;5059985;28;20468;-45
2022/03/29 12:36:15;;;;;;;18.90;13.17;;;19.30;46.80;;;;;;5055714;28;20956;-45
2022/03/29 12:39:00;;;;;;;17.57;13.23;;;19.30;45.90;;;;;;5052999;28;20665;-45
2022/03/29 12:41:44;;;;;;;17.47;12.80;;;19.30;45.50;;;;;;5058518;28;20454;-45
2022/03/29 12:44:14;;;;;;;18.20;12.90;;;19.30;45.10;;;;;;5062128;28;20501;-45